sensor_id;sensor_type;location;lat;lon;timestamp;pressure;altitude;pressure_sealevel;temperature;humidity
80759;BME280;70150;45.582;10.178;2023-07-02T00:02:21;99236.22;;;23.70;72.38
80759;BME280;70150;45.582;10.178;2023-07-02T00:04:47;99230.44;;;23.59;71.36
80759;BME280;70150;45.582;10.178;2023-07-02T00:07:12;99223.13;;;23.65;70.99
80759;BME280;70150;45.582;10.178;2023-07-02T00:09:38;99230.16;;;23.66;70.72
80759;BME280;70150;45.582;10.178;2023-07-02T00:12:04;99220.84;;;23.72;70.54
80759;BME280;70150;45.582;10.178;2023-07-02T00:14:29;99221.91;;;23.57;70.34
80759;BME280;70150;45.582;10.178;2023-07-02T00:16:55;99218.25;;;23.51;70.86
80759;BME280;70150;45.582;10.178;2023-07-02T00:19:21;99211.88;;;23.54;70.77
80759;BME280;70150;45.582;10.178;2023-07-02T00:21:46;99208.69;;;23.55;70.78
80759;BME280;70150;45.582;10.178;2023-07-02T00:24:13;99213.19;;;23.31;71.27
80759;BME280;70150;45.582;10.178;2023-07-02T00:26:38;99212.66;;;23.14;72.02
80759;BME280;70150;45.582;10.178;2023-07-02T00:29:06;99207.19;;;23.14;72.07
80759;BME280;70150;45.582;10.178;2023-07-02T00:31:33;99208.75;;;23.16;72.13
80759;BME280;70150;45.582;10.178;2023-07-02T00:33:59;99211.03;;;23.17;71.99
80759;BME280;70150;45.582;10.178;2023-07-02T00:36:26;99213.75;;;23.08;72.00
80759;BME280;70150;45.582;10.178;2023-07-02T00:38:51;99216.28;;;23.02;72.32
80759;BME280;70150;45.582;10.178;2023-07-02T00:41:17;99221.19;;;23.17;71.83
80759;BME280;70150;45.582;10.178;2023-07-02T00:43:43;99220.72;;;23.09;72.18
80759;BME280;70150;45.582;10.178;2023-07-02T00:46:14;99219.97;;;23.17;71.82
80759;BME280;70150;45.582;10.178;2023-07-02T00:48:44;99219.38;;;23.23;71.81
80759;BME280;70150;45.582;10.178;2023-07-02T00:51:13;99214.31;;;23.03;72.01
80759;BME280;70150;45.582;10.178;2023-07-02T00:53:40;99221.50;;;23.09;71.97
80759;BME280;70150;45.582;10.178;2023-07-02T00:56:05;99221.94;;;23.08;72.16
80759;BME280;70150;45.582;10.178;2023-07-02T00:58:31;99219.06;;;23.11;71.91
80759;BME280;70150;45.582;10.178;2023-07-02T01:00:58;99216.28;;;23.02;72.30
80759;BME280;70150;45.582;10.178;2023-07-02T01:03:24;99218.00;;;23.09;71.80
80759;BME280;70150;45.582;10.178;2023-07-02T01:05:50;99221.19;;;23.07;71.75
80759;BME280;70150;45.582;10.178;2023-07-02T01:08:18;99221.63;;;23.06;71.86
80759;BME280;70150;45.582;10.178;2023-07-02T01:10:43;99208.53;;;23.01;71.90
80759;BME280;70150;45.582;10.178;2023-07-02T01:13:14;99216.44;;;22.99;72.04
80759;BME280;70150;45.582;10.178;2023-07-02T01:15:42;99210.78;;;22.93;71.96
80759;BME280;70150;45.582;10.178;2023-07-02T01:18:10;99207.44;;;22.89;72.14
80759;BME280;70150;45.582;10.178;2023-07-02T01:20:36;99205.00;;;22.82;72.38
80759;BME280;70150;45.582;10.178;2023-07-02T01:23:03;99203.88;;;22.71;73.65
80759;BME280;70150;45.582;10.178;2023-07-02T01:25:29;99213.19;;;22.82;73.50
80759;BME280;70150;45.582;10.178;2023-07-02T01:28:03;99218.50;;;22.86;73.40
80759;BME280;70150;45.582;10.178;2023-07-02T01:30:28;99212.59;;;22.87;72.78
80759;BME280;70150;45.582;10.178;2023-07-02T01:32:54;99213.25;;;23.00;72.41
80759;BME280;70150;45.582;10.178;2023-07-02T01:35:22;99212.03;;;23.01;72.28
80759;BME280;70150;45.582;10.178;2023-07-02T01:37:47;99205.59;;;22.86;73.25
80759;BME280;70150;45.582;10.178;2023-07-02T01:40:15;99211.09;;;22.95;73.28
80759;BME280;70150;45.582;10.178;2023-07-02T01:42:40;99209.44;;;22.98;72.59
80759;BME280;70150;45.582;10.178;2023-07-02T01:45:07;99213.53;;;22.93;72.51
80759;BME280;70150;45.582;10.178;2023-07-02T01:47:32;99225.53;;;22.87;72.41
80759;BME280;70150;45.582;10.178;2023-07-02T01:49:59;99208.81;;;22.94;71.83
80759;BME280;70150;45.582;10.178;2023-07-02T01:52:24;99215.66;;;22.89;71.99
80759;BME280;70150;45.582;10.178;2023-07-02T01:54:50;99216.22;;;22.84;72.30
80759;BME280;70150;45.582;10.178;2023-07-02T01:57:20;99213.97;;;22.92;72.13
80759;BME280;70150;45.582;10.178;2023-07-02T01:59:45;99220.97;;;22.84;72.40
80759;BME280;70150;45.582;10.178;2023-07-02T02:02:11;99227.00;;;22.79;71.89
80759;BME280;70150;45.582;10.178;2023-07-02T02:04:36;99218.56;;;22.64;72.62
80759;BME280;70150;45.582;10.178;2023-07-02T02:07:02;99225.34;;;22.51;72.89
80759;BME280;70150;45.582;10.178;2023-07-02T02:09:28;99226.38;;;22.44;73.35
80759;BME280;70150;45.582;10.178;2023-07-02T02:11:55;99231.69;;;22.48;73.26
80759;BME280;70150;45.582;10.178;2023-07-02T02:14:21;99223.63;;;22.44;73.48
80759;BME280;70150;45.582;10.178;2023-07-02T02:16:48;99214.09;;;22.27;73.73
80759;BME280;70150;45.582;10.178;2023-07-02T02:19:16;99221.19;;;22.46;73.21
80759;BME280;70150;45.582;10.178;2023-07-02T02:21:42;99222.34;;;22.36;73.53
80759;BME280;70150;45.582;10.178;2023-07-02T02:24:08;99218.34;;;22.28;73.98
80759;BME280;70150;45.582;10.178;2023-07-02T02:26:34;99223.19;;;22.24;74.05
80759;BME280;70150;45.582;10.178;2023-07-02T02:29:00;99221.53;;;22.27;74.22
80759;BME280;70150;45.582;10.178;2023-07-02T02:31:26;99235.34;;;22.23;74.24
80759;BME280;70150;45.582;10.178;2023-07-02T02:33:51;99233.56;;;22.29;73.92
80759;BME280;70150;45.582;10.178;2023-07-02T02:36:17;99227.16;;;22.23;74.18
80759;BME280;70150;45.582;10.178;2023-07-02T02:38:45;99225.59;;;22.22;73.94
80759;BME280;70150;45.582;10.178;2023-07-02T02:41:10;99222.03;;;22.34;73.50
80759;BME280;70150;45.582;10.178;2023-07-02T02:43:36;99220.88;;;22.44;72.96
80759;BME280;70150;45.582;10.178;2023-07-02T02:46:01;99224.53;;;22.41;73.06
80759;BME280;70150;45.582;10.178;2023-07-02T02:48:29;99223.69;;;22.32;73.57
80759;BME280;70150;45.582;10.178;2023-07-02T02:50:55;99229.16;;;22.32;73.51
80759;BME280;70150;45.582;10.178;2023-07-02T02:53:20;99230.81;;;22.29;73.57
80759;BME280;70150;45.582;10.178;2023-07-02T02:55:46;99232.72;;;22.20;73.87
80759;BME280;70150;45.582;10.178;2023-07-02T02:58:11;99228.53;;;22.06;74.33
80759;BME280;70150;45.582;10.178;2023-07-02T03:00:37;99223.19;;;22.03;74.13
80759;BME280;70150;45.582;10.178;2023-07-02T03:03:07;99220.97;;;22.10;74.21
80759;BME280;70150;45.582;10.178;2023-07-02T03:05:32;99226.88;;;22.09;74.33
80759;BME280;70150;45.582;10.178;2023-07-02T03:07:59;99226.44;;;22.10;74.19
80759;BME280;70150;45.582;10.178;2023-07-02T03:10:24;99230.84;;;22.08;74.37
80759;BME280;70150;45.582;10.178;2023-07-02T03:12:50;99233.38;;;22.02;74.72
80759;BME280;70150;45.582;10.178;2023-07-02T03:15:18;99227.25;;;21.98;74.64
80759;BME280;70150;45.582;10.178;2023-07-02T03:17:43;99236.59;;;21.88;74.94
80759;BME280;70150;45.582;10.178;2023-07-02T03:20:09;99233.63;;;21.95;74.52
80759;BME280;70150;45.582;10.178;2023-07-02T03:22:34;99233.69;;;22.04;73.95
80759;BME280;70150;45.582;10.178;2023-07-02T03:25:00;99235.47;;;22.20;73.59
80759;BME280;70150;45.582;10.178;2023-07-02T03:27:26;99231.34;;;22.15;74.74
80759;BME280;70150;45.582;10.178;2023-07-02T03:29:51;99239.41;;;21.97;75.66
80759;BME280;70150;45.582;10.178;2023-07-02T03:32:17;99241.47;;;21.93;76.25
80759;BME280;70150;45.582;10.178;2023-07-02T03:34:43;99249.41;;;22.13;75.25
80759;BME280;70150;45.582;10.178;2023-07-02T03:37:08;99245.72;;;22.07;74.94
80759;BME280;70150;45.582;10.178;2023-07-02T03:39:34;99249.44;;;22.00;74.71
80759;BME280;70150;45.582;10.178;2023-07-02T03:41:59;99256.44;;;22.01;74.64
80759;BME280;70150;45.582;10.178;2023-07-02T03:44:25;99256.75;;;22.03;74.14
80759;BME280;70150;45.582;10.178;2023-07-02T03:46:50;99255.47;;;21.95;74.05
80759;BME280;70150;45.582;10.178;2023-07-02T03:49:16;99259.72;;;21.96;75.48
80759;BME280;70150;45.582;10.178;2023-07-02T03:51:41;99252.22;;;21.88;76.37
80759;BME280;70150;45.582;10.178;2023-07-02T03:54:07;99258.50;;;21.76;75.62
80759;BME280;70150;45.582;10.178;2023-07-02T03:56:32;99259.53;;;21.91;75.29
80759;BME280;70150;45.582;10.178;2023-07-02T03:58:58;99258.31;;;21.92;74.81
80759;BME280;70150;45.582;10.178;2023-07-02T04:01:23;99258.38;;;21.79;74.96
80759;BME280;70150;45.582;10.178;2023-07-02T04:03:51;99248.34;;;21.98;74.42
80759;BME280;70150;45.582;10.178;2023-07-02T04:06:17;99254.25;;;21.96;74.31
80759;BME280;70150;45.582;10.178;2023-07-02T04:08:44;99260.25;;;22.04;73.95
80759;BME280;70150;45.582;10.178;2023-07-02T04:11:12;99257.16;;;22.14;73.61
80759;BME280;70150;45.582;10.178;2023-07-02T04:13:39;99257.75;;;21.97;73.74
80759;BME280;70150;45.582;10.178;2023-07-02T04:16:05;99263.94;;;22.10;73.61
80759;BME280;70150;45.582;10.178;2023-07-02T04:18:33;99268.09;;;22.14;73.19
80759;BME280;70150;45.582;10.178;2023-07-02T04:20:59;99271.69;;;22.11;73.39
80759;BME280;70150;45.582;10.178;2023-07-02T04:23:25;99278.78;;;22.09;73.63
80759;BME280;70150;45.582;10.178;2023-07-02T04:25:51;99279.00;;;22.14;72.83
80759;BME280;70150;45.582;10.178;2023-07-02T04:28:16;99280.09;;;22.17;73.15
80759;BME280;70150;45.582;10.178;2023-07-02T04:30:42;99280.78;;;22.08;73.36
80759;BME280;70150;45.582;10.178;2023-07-02T04:33:08;99282.41;;;22.06;73.27
80759;BME280;70150;45.582;10.178;2023-07-02T04:35:34;99275.31;;;22.08;73.83
80759;BME280;70150;45.582;10.178;2023-07-02T04:38:00;99287.31;;;22.11;73.42
80759;BME280;70150;45.582;10.178;2023-07-02T04:40:26;99295.25;;;22.18;73.25
80759;BME280;70150;45.582;10.178;2023-07-02T04:42:52;99291.78;;;22.17;73.47
80759;BME280;70150;45.582;10.178;2023-07-02T04:45:23;99285.38;;;22.11;73.25
80759;BME280;70150;45.582;10.178;2023-07-02T04:47:50;99294.06;;;22.19;73.00
80759;BME280;70150;45.582;10.178;2023-07-02T04:50:16;99294.44;;;22.30;72.79
80759;BME280;70150;45.582;10.178;2023-07-02T04:52:44;99291.31;;;22.40;72.39
80759;BME280;70150;45.582;10.178;2023-07-02T04:55:10;99291.09;;;22.47;72.21
80759;BME280;70150;45.582;10.178;2023-07-02T04:57:36;99294.97;;;22.59;71.03
80759;BME280;70150;45.582;10.178;2023-07-02T05:00:02;99296.81;;;22.62;71.29
80759;BME280;70150;45.582;10.178;2023-07-02T05:02:30;99293.81;;;22.69;71.03
80759;BME280;70150;45.582;10.178;2023-07-02T05:04:55;99297.94;;;22.73;70.90
80759;BME280;70150;45.582;10.178;2023-07-02T05:07:21;99296.16;;;22.79;70.74
80759;BME280;70150;45.582;10.178;2023-07-02T05:09:46;99298.56;;;22.77;70.60
80759;BME280;70150;45.582;10.178;2023-07-02T05:12:14;99295.88;;;22.86;70.49
80759;BME280;70150;45.582;10.178;2023-07-02T05:14:39;99290.00;;;22.97;69.79
80759;BME280;70150;45.582;10.178;2023-07-02T05:17:05;99294.88;;;23.33;68.75
80759;BME280;70150;45.582;10.178;2023-07-02T05:19:30;99297.91;;;24.10;66.28
80759;BME280;70150;45.582;10.178;2023-07-02T05:21:56;99299.69;;;24.49;64.18
80759;BME280;70150;45.582;10.178;2023-07-02T05:24:21;99298.63;;;24.74;63.08
80759;BME280;70150;45.582;10.178;2023-07-02T05:26:47;99296.50;;;24.42;65.13
80759;BME280;70150;45.582;10.178;2023-07-02T05:29:13;99298.31;;;24.72;63.77
80759;BME280;70150;45.582;10.178;2023-07-02T05:31:39;99292.56;;;24.43;64.27
80759;BME280;70150;45.582;10.178;2023-07-02T05:34:05;99297.28;;;24.51;64.75
80759;BME280;70150;45.582;10.178;2023-07-02T05:36:31;99301.72;;;24.13;65.34
80759;BME280;70150;45.582;10.178;2023-07-02T05:38:56;99299.75;;;24.04;66.28
80759;BME280;70150;45.582;10.178;2023-07-02T05:41:22;99295.31;;;23.98;66.68
80759;BME280;70150;45.582;10.178;2023-07-02T05:43:48;99302.91;;;23.94;66.69
80759;BME280;70150;45.582;10.178;2023-07-02T05:46:14;99307.50;;;24.06;66.73
80759;BME280;70150;45.582;10.178;2023-07-02T05:48:41;99303.97;;;25.10;63.67
80759;BME280;70150;45.582;10.178;2023-07-02T05:51:07;99297.53;;;25.55;61.98
80759;BME280;70150;45.582;10.178;2023-07-02T05:53:33;99297.56;;;25.13;62.83
80759;BME280;70150;45.582;10.178;2023-07-02T05:55:58;99302.81;;;24.93;63.55
80759;BME280;70150;45.582;10.178;2023-07-02T05:58:24;99305.63;;;24.75;64.13
80759;BME280;70150;45.582;10.178;2023-07-02T06:00:49;99305.16;;;24.76;64.00
80759;BME280;70150;45.582;10.178;2023-07-02T06:03:16;99313.81;;;24.84;64.28
80759;BME280;70150;45.582;10.178;2023-07-02T06:05:47;99310.63;;;24.95;62.58
80759;BME280;70150;45.582;10.178;2023-07-02T06:08:16;99315.63;;;25.05;63.65
80759;BME280;70150;45.582;10.178;2023-07-02T06:10:43;99313.22;;;24.89;63.68
80759;BME280;70150;45.582;10.178;2023-07-02T06:13:08;99316.69;;;25.31;62.04
80759;BME280;70150;45.582;10.178;2023-07-02T06:15:34;99317.75;;;26.66;58.45
80759;BME280;70150;45.582;10.178;2023-07-02T06:18:00;99312.03;;;28.02;53.48
80759;BME280;70150;45.582;10.178;2023-07-02T06:20:25;99320.03;;;27.80;54.14
80759;BME280;70150;45.582;10.178;2023-07-02T06:22:51;99320.66;;;27.70;55.13
80759;BME280;70150;45.582;10.178;2023-07-02T06:25:16;99321.25;;;28.40;52.89
80759;BME280;70150;45.582;10.178;2023-07-02T06:27:42;99328.44;;;28.11;55.15
80759;BME280;70150;45.582;10.178;2023-07-02T06:30:08;99330.41;;;28.31;55.25
80759;BME280;70150;45.582;10.178;2023-07-02T06:32:33;99332.41;;;28.05;56.47
80759;BME280;70150;45.582;10.178;2023-07-02T06:34:59;99335.56;;;27.98;56.29
80759;BME280;70150;45.582;10.178;2023-07-02T06:37:24;99337.59;;;27.83;57.33
80759;BME280;70150;45.582;10.178;2023-07-02T06:39:50;99340.50;;;27.39;58.21
80759;BME280;70150;45.582;10.178;2023-07-02T06:42:16;99347.38;;;27.84;57.93
80759;BME280;70150;45.582;10.178;2023-07-02T06:44:41;99347.09;;;27.62;58.24
80759;BME280;70150;45.582;10.178;2023-07-02T06:47:07;99350.41;;;27.66;58.35
80759;BME280;70150;45.582;10.178;2023-07-02T06:49:33;99348.06;;;27.59;58.74
80759;BME280;70150;45.582;10.178;2023-07-02T06:51:59;99343.19;;;27.68;58.14
80759;BME280;70150;45.582;10.178;2023-07-02T06:54:26;99341.94;;;27.35;59.26
80759;BME280;70150;45.582;10.178;2023-07-02T06:56:52;99344.38;;;27.47;59.13
80759;BME280;70150;45.582;10.178;2023-07-02T06:59:22;99337.69;;;27.54;58.99
80759;BME280;70150;45.582;10.178;2023-07-02T07:01:49;99344.91;;;27.86;58.29
80759;BME280;70150;45.582;10.178;2023-07-02T07:04:14;99340.72;;;27.90;56.42
80759;BME280;70150;45.582;10.178;2023-07-02T07:06:40;99345.31;;;27.79;57.44
80759;BME280;70150;45.582;10.178;2023-07-02T07:09:09;99342.47;;;27.88;57.90
80759;BME280;70150;45.582;10.178;2023-07-02T07:11:35;99346.69;;;27.69;58.27
80759;BME280;70150;45.582;10.178;2023-07-02T07:14:00;99346.19;;;27.50;58.28
80759;BME280;70150;45.582;10.178;2023-07-02T07:16:26;99349.91;;;27.33;59.23
80759;BME280;70150;45.582;10.178;2023-07-02T07:18:52;99348.03;;;27.24;59.44
80759;BME280;70150;45.582;10.178;2023-07-02T07:21:17;99341.19;;;27.34;59.13
80759;BME280;70150;45.582;10.178;2023-07-02T07:23:43;99341.63;;;27.47;58.96
80759;BME280;70150;45.582;10.178;2023-07-02T07:26:08;99342.13;;;27.66;57.90
80759;BME280;70150;45.582;10.178;2023-07-02T07:28:34;99348.47;;;27.72;57.67
80759;BME280;70150;45.582;10.178;2023-07-02T07:30:59;99351.16;;;27.03;59.75
80759;BME280;70150;45.582;10.178;2023-07-02T07:33:25;99347.75;;;27.37;59.02
80759;BME280;70150;45.582;10.178;2023-07-02T07:35:51;99351.56;;;27.25;59.06
80759;BME280;70150;45.582;10.178;2023-07-02T07:38:16;99342.22;;;27.37;57.85
80759;BME280;70150;45.582;10.178;2023-07-02T07:40:42;99341.47;;;27.22;58.21
80759;BME280;70150;45.582;10.178;2023-07-02T07:43:08;99341.41;;;27.02;59.02
80759;BME280;70150;45.582;10.178;2023-07-02T07:45:34;99352.97;;;27.35;58.37
80759;BME280;70150;45.582;10.178;2023-07-02T07:48:00;99348.41;;;27.17;59.32
80759;BME280;70150;45.582;10.178;2023-07-02T07:50:25;99343.84;;;27.29;59.04
80759;BME280;70150;45.582;10.178;2023-07-02T07:52:51;99352.47;;;27.36;58.35
80759;BME280;70150;45.582;10.178;2023-07-02T07:55:17;99351.06;;;27.41;58.27
80759;BME280;70150;45.582;10.178;2023-07-02T07:57:42;99357.53;;;27.38;58.16
80759;BME280;70150;45.582;10.178;2023-07-02T08:00:08;99361.97;;;27.50;57.37
80759;BME280;70150;45.582;10.178;2023-07-02T08:02:35;99361.19;;;27.49;56.84
80759;BME280;70150;45.582;10.178;2023-07-02T08:05:03;99359.59;;;27.43;57.43
80759;BME280;70150;45.582;10.178;2023-07-02T08:07:31;99362.75;;;27.21;57.85
80759;BME280;70150;45.582;10.178;2023-07-02T08:09:56;99359.13;;;27.44;58.67
80759;BME280;70150;45.582;10.178;2023-07-02T08:12:22;99364.41;;;27.62;57.68
80759;BME280;70150;45.582;10.178;2023-07-02T08:14:49;99360.72;;;27.51;58.21
80759;BME280;70150;45.582;10.178;2023-07-02T08:17:14;99365.44;;;27.65;57.67
80759;BME280;70150;45.582;10.178;2023-07-02T08:19:40;99368.13;;;27.79;56.74
80759;BME280;70150;45.582;10.178;2023-07-02T08:22:06;99365.91;;;27.98;56.95
80759;BME280;70150;45.582;10.178;2023-07-02T08:24:31;99373.34;;;27.92;57.41
80759;BME280;70150;45.582;10.178;2023-07-02T08:26:59;99371.50;;;28.03;57.20
80759;BME280;70150;45.582;10.178;2023-07-02T08:29:26;99367.16;;;27.97;56.75
80759;BME280;70150;45.582;10.178;2023-07-02T08:31:52;99374.38;;;28.14;56.45
80759;BME280;70150;45.582;10.178;2023-07-02T08:34:17;99376.94;;;28.38;57.14
80759;BME280;70150;45.582;10.178;2023-07-02T08:36:43;99379.00;;;28.23;57.05
80759;BME280;70150;45.582;10.178;2023-07-02T08:39:09;99372.50;;;28.46;56.44
80759;BME280;70150;45.582;10.178;2023-07-02T08:44:06;99375.78;;;28.25;56.52
80759;BME280;70150;45.582;10.178;2023-07-02T08:46:32;99378.91;;;28.38;56.51
80759;BME280;70150;45.582;10.178;2023-07-02T08:48:57;99373.00;;;28.04;56.72
80759;BME280;70150;45.582;10.178;2023-07-02T08:51:23;99377.84;;;27.75;58.00
80759;BME280;70150;45.582;10.178;2023-07-02T08:53:49;99372.91;;;27.79;59.10
80759;BME280;70150;45.582;10.178;2023-07-02T08:56:14;99378.53;;;28.04;58.31
80759;BME280;70150;45.582;10.178;2023-07-02T08:58:40;99383.81;;;28.28;58.86
80759;BME280;70150;45.582;10.178;2023-07-02T09:01:08;99373.22;;;28.21;57.31
80759;BME280;70150;45.582;10.178;2023-07-02T09:03:37;99378.44;;;28.39;58.33
80759;BME280;70150;45.582;10.178;2023-07-02T09:06:04;99387.41;;;28.34;57.75
80759;BME280;70150;45.582;10.178;2023-07-02T09:08:29;99380.59;;;28.50;56.68
80759;BME280;70150;45.582;10.178;2023-07-02T09:13:27;99377.94;;;28.86;56.80
80759;BME280;70150;45.582;10.178;2023-07-02T09:15:52;99379.59;;;29.29;54.43
80759;BME280;70150;45.582;10.178;2023-07-02T09:18:21;99372.44;;;29.43;55.49
80759;BME280;70150;45.582;10.178;2023-07-02T09:20:51;99377.50;;;29.87;52.17
80759;BME280;70150;45.582;10.178;2023-07-02T09:23:17;99374.13;;;30.19;53.42
80759;BME280;70150;45.582;10.178;2023-07-02T09:25:42;99368.69;;;30.47;52.33
80759;BME280;70150;45.582;10.178;2023-07-02T09:33:12;99370.25;;;30.70;51.83
80759;BME280;70150;45.582;10.178;2023-07-02T09:35:40;99367.97;;;30.63;50.46
80759;BME280;70150;45.582;10.178;2023-07-02T09:38:06;99365.00;;;30.77;49.58
80759;BME280;70150;45.582;10.178;2023-07-02T09:40:32;99358.16;;;30.73;49.52
80759;BME280;70150;45.582;10.178;2023-07-02T09:42:59;99369.53;;;30.86;50.32
80759;BME280;70150;45.582;10.178;2023-07-02T09:45:25;99355.44;;;30.84;49.89
80759;BME280;70150;45.582;10.178;2023-07-02T09:47:53;99357.38;;;30.56;49.50
80759;BME280;70150;45.582;10.178;2023-07-02T09:50:21;99350.16;;;30.91;48.94
80759;BME280;70150;45.582;10.178;2023-07-02T09:52:48;99359.06;;;30.31;47.35
80759;BME280;70150;45.582;10.178;2023-07-02T09:55:14;99355.09;;;29.90;51.04
80759;BME280;70150;45.582;10.178;2023-07-02T09:57:43;99351.81;;;30.34;48.94
80759;BME280;70150;45.582;10.178;2023-07-02T10:00:10;99341.25;;;30.49;48.12
80759;BME280;70150;45.582;10.178;2023-07-02T10:02:36;99349.25;;;29.71;51.03
80759;BME280;70150;45.582;10.178;2023-07-02T10:05:02;99347.69;;;30.13;49.46
80759;BME280;70150;45.582;10.178;2023-07-02T10:07:29;99354.03;;;29.76;50.53
80759;BME280;70150;45.582;10.178;2023-07-02T10:09:55;99353.59;;;29.84;48.19
80759;BME280;70150;45.582;10.178;2023-07-02T10:12:23;99360.94;;;29.98;50.62
80759;BME280;70150;45.582;10.178;2023-07-02T10:14:50;99354.50;;;30.17;50.53
80759;BME280;70150;45.582;10.178;2023-07-02T10:19:51;99344.72;;;30.27;49.61
80759;BME280;70150;45.582;10.178;2023-07-02T10:22:18;99356.94;;;29.62;50.84
80759;BME280;70150;45.582;10.178;2023-07-02T10:27:17;99348.03;;;30.37;49.47
80759;BME280;70150;45.582;10.178;2023-07-02T10:29:49;99340.22;;;30.46;49.03
80759;BME280;70150;45.582;10.178;2023-07-02T10:32:26;99340.50;;;30.43;49.48
80759;BME280;70150;45.582;10.178;2023-07-02T10:34:52;99340.97;;;30.25;51.27
80759;BME280;70150;45.582;10.178;2023-07-02T10:37:18;99343.22;;;30.32;50.17
80759;BME280;70150;45.582;10.178;2023-07-02T10:39:44;99346.75;;;30.32;51.29
80759;BME280;70150;45.582;10.178;2023-07-02T10:42:10;99349.81;;;30.45;50.74
80759;BME280;70150;45.582;10.178;2023-07-02T10:44:47;99347.31;;;30.53;51.72
80759;BME280;70150;45.582;10.178;2023-07-02T10:47:13;99349.03;;;30.45;50.74
80759;BME280;70150;45.582;10.178;2023-07-02T10:49:39;99343.78;;;30.63;49.82
80759;BME280;70150;45.582;10.178;2023-07-02T10:52:05;99338.03;;;30.78;49.77
80759;BME280;70150;45.582;10.178;2023-07-02T10:57:08;99333.03;;;31.09;48.43
80759;BME280;70150;45.582;10.178;2023-07-02T10:59:34;99330.50;;;31.00;48.44
80759;BME280;70150;45.582;10.178;2023-07-02T11:01:59;99331.25;;;30.79;47.77
80759;BME280;70150;45.582;10.178;2023-07-02T11:04:28;99324.97;;;30.84;48.22
80759;BME280;70150;45.582;10.178;2023-07-02T11:06:54;99320.94;;;31.01;47.79
80759;BME280;70150;45.582;10.178;2023-07-02T11:09:19;99328.47;;;30.84;48.29
80759;BME280;70150;45.582;10.178;2023-07-02T11:16:54;99334.22;;;30.59;50.64
80759;BME280;70150;45.582;10.178;2023-07-02T11:19:20;99321.91;;;30.71;48.62
80759;BME280;70150;45.582;10.178;2023-07-02T11:21:51;99324.69;;;30.76;50.27
80759;BME280;70150;45.582;10.178;2023-07-02T11:26:56;99322.69;;;30.77;49.69
80759;BME280;70150;45.582;10.178;2023-07-02T11:29:21;99326.41;;;30.52;50.47
80759;BME280;70150;45.582;10.178;2023-07-02T11:31:47;99323.41;;;30.72;48.14
80759;BME280;70150;45.582;10.178;2023-07-02T11:34:14;99321.13;;;30.65;48.27
80759;BME280;70150;45.582;10.178;2023-07-02T11:36:40;99321.63;;;30.52;47.45
80759;BME280;70150;45.582;10.178;2023-07-02T11:39:06;99315.75;;;30.17;47.89
80759;BME280;70150;45.582;10.178;2023-07-02T11:41:37;99312.78;;;30.37;48.13
80759;BME280;70150;45.582;10.178;2023-07-02T11:44:03;99315.09;;;30.61;46.90
80759;BME280;70150;45.582;10.178;2023-07-02T11:46:28;99303.50;;;30.46;48.21
80759;BME280;70150;45.582;10.178;2023-07-02T11:48:54;99311.81;;;30.57;47.35
80759;BME280;70150;45.582;10.178;2023-07-02T11:51:19;99316.19;;;30.05;48.35
80759;BME280;70150;45.582;10.178;2023-07-02T11:53:45;99311.78;;;30.35;48.65
80759;BME280;70150;45.582;10.178;2023-07-02T11:56:15;99308.00;;;30.38;48.57
80759;BME280;70150;45.582;10.178;2023-07-02T11:58:41;99305.75;;;30.53;48.44
80759;BME280;70150;45.582;10.178;2023-07-02T12:01:07;99307.47;;;30.28;49.53
80759;BME280;70150;45.582;10.178;2023-07-02T12:03:33;99305.47;;;30.29;48.10
80759;BME280;70150;45.582;10.178;2023-07-02T12:05:58;99315.56;;;30.48;48.29
80759;BME280;70150;45.582;10.178;2023-07-02T12:08:24;99304.31;;;30.96;47.99
80759;BME280;70150;45.582;10.178;2023-07-02T12:10:49;99306.31;;;30.84;48.04
80759;BME280;70150;45.582;10.178;2023-07-02T12:13:15;99306.06;;;30.88;48.74
80759;BME280;70150;45.582;10.178;2023-07-02T12:15:41;99305.56;;;30.89;48.24
80759;BME280;70150;45.582;10.178;2023-07-02T12:18:06;99308.09;;;30.93;47.23
80759;BME280;70150;45.582;10.178;2023-07-02T12:20:32;99316.06;;;30.47;47.58
80759;BME280;70150;45.582;10.178;2023-07-02T12:22:58;99304.00;;;30.55;47.30
80759;BME280;70150;45.582;10.178;2023-07-02T12:25:23;99314.28;;;30.22;47.64
80759;BME280;70150;45.582;10.178;2023-07-02T12:27:49;99312.13;;;29.95;48.02
80759;BME280;70150;45.582;10.178;2023-07-02T12:30:14;99310.66;;;30.05;49.05
80759;BME280;70150;45.582;10.178;2023-07-02T12:32:43;99310.03;;;29.73;49.48
80759;BME280;70150;45.582;10.178;2023-07-02T12:35:09;99310.66;;;29.57;50.22
80759;BME280;70150;45.582;10.178;2023-07-02T12:37:34;99315.47;;;29.62;49.12
80759;BME280;70150;45.582;10.178;2023-07-02T12:40:00;99306.72;;;29.69;49.05
80759;BME280;70150;45.582;10.178;2023-07-02T12:42:26;99307.47;;;29.64;48.32
80759;BME280;70150;45.582;10.178;2023-07-02T12:44:52;99311.34;;;29.89;48.32
80759;BME280;70150;45.582;10.178;2023-07-02T12:47:17;99312.00;;;30.20;48.72
80759;BME280;70150;45.582;10.178;2023-07-02T12:49:43;99303.72;;;30.31;48.81
80759;BME280;70150;45.582;10.178;2023-07-02T12:52:09;99311.75;;;30.24;48.84
80759;BME280;70150;45.582;10.178;2023-07-02T12:54:34;99304.00;;;30.50;48.15
80759;BME280;70150;45.582;10.178;2023-07-02T12:57:00;99296.19;;;30.43;46.36
80759;BME280;70150;45.582;10.178;2023-07-02T12:59:25;99300.22;;;30.47;47.05
80759;BME280;70150;45.582;10.178;2023-07-02T13:01:51;99302.28;;;30.74;47.37
80759;BME280;70150;45.582;10.178;2023-07-02T13:04:16;99295.75;;;30.83;46.74
80759;BME280;70150;45.582;10.178;2023-07-02T13:06:45;99294.72;;;30.75;47.16
80759;BME280;70150;45.582;10.178;2023-07-02T13:09:10;99294.19;;;30.60;46.79
80759;BME280;70150;45.582;10.178;2023-07-02T13:11:36;99293.47;;;30.76;45.82